createdAt,value
2023-03-26T00:00:00.893Z,7.04
2023-03-26T00:01:01.086Z,6.99
2023-03-26T00:02:01.313Z,7.04
2023-03-26T00:03:01.435Z,7.07
2023-03-26T00:04:01.516Z,7.04
2023-03-26T00:05:02.451Z,6.99
2023-03-26T00:06:02.973Z,7.08
2023-03-26T00:07:02.128Z,7.19
2023-03-26T00:08:02.354Z,7.08
2023-03-26T00:09:02.560Z,7.05
2023-03-26T00:10:03.429Z,7.15
2023-03-26T00:11:03.426Z,7.12
2023-03-26T00:12:03.897Z,7.13
2023-03-26T00:13:03.280Z,7.09
2023-03-26T00:14:03.433Z,7.02
2023-03-26T00:15:05.263Z,7.22
2023-03-26T00:16:04.486Z,7.16
2023-03-26T00:17:04.510Z,7.17
2023-03-26T00:18:04.139Z,7.17
2023-03-26T00:19:04.360Z,7.19
2023-03-26T00:20:05.401Z,7.17
2023-03-26T00:21:04.675Z,7.19
2023-03-26T00:22:05.434Z,7.24
2023-03-26T00:23:05.087Z,7.22
2023-03-26T00:24:05.291Z,7.27
2023-03-26T00:25:06.434Z,7.17
2023-03-26T00:26:06.432Z,7.20
2023-03-26T00:27:05.844Z,7.17
2023-03-26T00:28:06.037Z,7.24
2023-03-26T00:29:06.235Z,7.26
2023-03-26T00:30:06.402Z,7.23
2023-03-26T00:31:06.640Z,7.29
2023-03-26T00:32:06.750Z,7.26
2023-03-26T00:33:06.975Z,7.34
2023-03-26T00:34:07.940Z,7.38
2023-03-26T00:35:07.374Z,7.37
2023-03-26T00:36:08.452Z,7.41
2023-03-26T00:37:08.445Z,7.42
2023-03-26T00:38:09.411Z,7.41
2023-03-26T00:39:08.909Z,7.38
2023-03-26T00:40:08.903Z,7.44
2023-03-26T00:41:08.553Z,7.49
2023-03-26T00:42:08.753Z,7.49
2023-03-26T00:43:09.445Z,7.45
2023-03-26T00:44:10.416Z,7.45
2023-03-26T00:45:09.331Z,7.52
2023-03-26T00:46:09.544Z,7.49
2023-03-26T00:47:09.744Z,7.44
2023-03-26T00:48:44.023Z,7.47
2023-03-26T00:49:12.950Z,7.53
2023-03-26T00:50:10.298Z,7.45
2023-03-26T00:51:12.423Z,7.49
2023-03-26T00:52:10.668Z,7.53
2023-03-26T00:53:11.465Z,7.45
2023-03-26T00:54:10.996Z,7.47
2023-03-26T00:55:11.169Z,7.58
2023-03-26T00:56:11.909Z,7.52
2023-03-26T00:57:13.746Z,7.56
2023-03-26T00:58:13.649Z,7.47
2023-03-26T00:59:11.897Z,7.53
2023-03-26T01:00:12.047Z,7.53
2023-03-26T01:01:12.288Z,7.59
2023-03-26T01:02:12.451Z,7.58
2023-03-26T01:03:21.822Z,7.55
2023-03-26T01:04:14.791Z,7.59
2023-03-26T01:05:15.950Z,7.60
2023-03-26T01:06:12.972Z,7.58
2023-03-26T01:07:13.905Z,7.58
2023-03-26T01:08:13.962Z,7.56
2023-03-26T01:09:13.495Z,7.52
2023-03-26T01:10:14.344Z,7.58
2023-03-26T01:11:13.917Z,7.59
2023-03-26T01:12:14.011Z,7.62
2023-03-26T01:13:14.978Z,7.62
2023-03-26T01:14:14.343Z,7.62
2023-03-26T01:15:14.513Z,7.55
2023-03-26T01:16:14.700Z,7.52
2023-03-26T01:17:15.410Z,7.60
2023-03-26T01:18:15.906Z,7.59
2023-03-26T01:19:15.281Z,7.62
2023-03-26T01:20:15.456Z,7.59
2023-03-26T01:21:15.646Z,7.55
2023-03-26T01:22:15.800Z,7.59
2023-03-26T01:23:16.468Z,7.60
2023-03-26T01:24:16.962Z,7.63
2023-03-26T01:25:16.253Z,7.66
2023-03-26T01:26:16.440Z,7.56
2023-03-26T01:27:16.614Z,7.63
2023-03-26T01:28:16.808Z,7.49
2023-03-26T01:29:18.783Z,7.47
2023-03-26T01:30:17.168Z,7.52
2023-03-26T01:31:18.918Z,7.50
2023-03-26T01:32:17.637Z,7.58
2023-03-26T01:33:17.748Z,7.58
2023-03-26T01:34:19.422Z,7.56
2023-03-26T01:35:18.113Z,7.47
2023-03-26T01:36:18.933Z,7.59
2023-03-26T01:37:18.463Z,7.55
2023-03-26T01:38:19.458Z,7.53
2023-03-26T01:39:18.931Z,7.44
2023-03-26T01:40:19.914Z,7.55
2023-03-26T01:41:19.957Z,7.47
2023-03-26T01:42:20.409Z,7.59
2023-03-26T01:43:19.674Z,7.55
2023-03-26T01:44:19.839Z,7.56
2023-03-26T01:45:20.924Z,7.55
2023-03-26T01:46:20.223Z,7.52
2023-03-26T01:47:21.006Z,7.67
2023-03-26T01:48:21.425Z,7.56
2023-03-26T01:49:20.676Z,7.58
2023-03-26T01:50:21.431Z,7.59
2023-03-26T01:51:21.109Z,7.50
2023-03-26T01:52:21.311Z,7.58
2023-03-26T01:53:22.448Z,7.55
2023-03-26T01:54:21.628Z,7.60
2023-03-26T01:55:22.920Z,7.52
2023-03-26T01:56:22.928Z,7.63
2023-03-26T01:57:22.094Z,7.55
2023-03-26T01:58:22.962Z,7.58
2023-03-26T01:59:22.537Z,7.60
2023-03-26T02:00:22.801Z,7.47
2023-03-26T02:01:22.912Z,7.59
2023-03-26T02:02:25.079Z,7.59
2023-03-26T02:03:23.329Z,7.59
2023-03-26T02:04:23.464Z,7.49
2023-03-26T02:05:24.465Z,7.55
2023-03-26T02:06:23.740Z,7.60
2023-03-26T02:07:23.918Z,7.50
2023-03-26T02:08:24.074Z,7.56
2023-03-26T02:09:24.228Z,7.53
2023-03-26T02:10:24.965Z,7.58
2023-03-26T02:11:33.590Z,7.59
2023-03-26T02:12:25.840Z,7.55
2023-03-26T02:13:24.993Z,7.58
2023-03-26T02:14:26.421Z,7.62
2023-03-26T02:15:25.304Z,7.59
2023-03-26T02:16:25.523Z,7.62
2023-03-26T02:17:26.011Z,7.55
2023-03-26T02:18:26.928Z,7.60
2023-03-26T02:19:26.982Z,7.49
2023-03-26T02:20:26.923Z,7.60
2023-03-26T02:21:26.452Z,7.56
2023-03-26T02:22:27.463Z,7.59
2023-03-26T02:23:26.751Z,7.56
2023-03-26T02:24:27.467Z,7.59
2023-03-26T02:25:27.968Z,7.60
2023-03-26T02:26:27.355Z,7.60
2023-03-26T02:27:28.425Z,7.56
2023-03-26T02:28:27.681Z,7.59
2023-03-26T02:29:27.984Z,7.66
2023-03-26T02:30:28.143Z,7.62
2023-03-26T02:31:29.179Z,7.62
2023-03-26T02:32:29.369Z,7.56
2023-03-26T02:33:29.473Z,7.62
2023-03-26T02:34:28.635Z,7.59
2023-03-26T02:35:28.854Z,7.60
2023-03-26T02:36:29.049Z,7.53
2023-03-26T02:37:29.135Z,7.62
2023-03-26T02:38:29.278Z,7.63
2023-03-26T02:39:29.459Z,7.58
2023-03-26T02:40:29.644Z,7.60
2023-03-26T02:41:29.980Z,7.63
2023-03-26T02:42:30.958Z,7.69
2023-03-26T02:43:30.209Z,7.60
2023-03-26T02:44:30.404Z,7.63
2023-03-26T02:45:30.704Z,7.66
2023-03-26T02:46:30.789Z,7.72
2023-03-26T02:47:31.514Z,7.74
2023-03-26T02:48:31.928Z,7.74
2023-03-26T02:49:31.930Z,7.81
2023-03-26T02:50:32.447Z,7.79
2023-03-26T02:51:31.602Z,7.78
2023-03-26T02:52:32.427Z,7.78
2023-03-26T02:53:32.461Z,7.75
2023-03-26T02:54:33.104Z,7.72
2023-03-26T02:55:32.947Z,7.71
2023-03-26T02:56:32.518Z,7.74
2023-03-26T02:57:32.729Z,7.82
2023-03-26T02:58:32.882Z,7.84
2023-03-26T02:59:33.078Z,7.89
2023-03-26T03:00:33.796Z,7.77
2023-03-26T03:01:33.518Z,7.87
2023-03-26T03:02:33.743Z,7.82
2023-03-26T03:03:33.878Z,7.81
2023-03-26T03:04:34.934Z,7.75
2023-03-26T03:05:34.254Z,7.77
2023-03-26T03:06:34.972Z,7.78
2023-03-26T03:07:34.525Z,7.79
2023-03-26T03:08:35.440Z,7.81
2023-03-26T03:09:34.886Z,7.84
2023-03-26T03:10:35.094Z,7.81
2023-03-26T03:11:35.286Z,7.84
2023-03-26T03:12:36.431Z,7.84
2023-03-26T03:13:36.434Z,7.78
2023-03-26T03:14:35.873Z,7.82
2023-03-26T03:15:36.074Z,7.93
2023-03-26T03:16:36.984Z,7.84
2023-03-26T03:17:36.480Z,7.81
2023-03-26T03:18:37.431Z,7.82
2023-03-26T03:19:36.928Z,7.85
2023-03-26T03:20:37.117Z,7.90
2023-03-26T03:21:37.294Z,7.82
2023-03-26T03:22:37.457Z,7.89
2023-03-26T03:23:37.632Z,7.89
2023-03-26T03:24:37.800Z,7.99
2023-03-26T03:25:37.974Z,7.90
2023-03-26T03:26:38.968Z,7.92
2023-03-26T03:27:38.394Z,7.94
2023-03-26T03:28:38.596Z,7.94
2023-03-26T03:29:38.799Z,7.94
2023-03-26T03:30:39.036Z,7.92
2023-03-26T03:31:39.951Z,7.85
2023-03-26T03:32:39.417Z,7.85
2023-03-26T03:33:40.481Z,7.75
2023-03-26T03:34:40.441Z,7.72
2023-03-26T03:35:41.568Z,7.82
2023-03-26T03:36:40.186Z,7.79
2023-03-26T03:37:40.376Z,7.75
2023-03-26T03:38:40.573Z,7.81
2023-03-26T03:39:40.746Z,7.78
2023-03-26T03:40:40.945Z,7.77
2023-03-26T03:41:41.986Z,7.66
2023-03-26T03:42:41.988Z,7.78
2023-03-26T03:43:41.399Z,7.62
2023-03-26T03:44:41.580Z,7.59
2023-03-26T03:45:42.311Z,7.67
2023-03-26T03:46:41.965Z,7.66
2023-03-26T03:47:43.042Z,7.71
2023-03-26T03:48:42.312Z,7.53
2023-03-26T03:49:43.445Z,7.56
2023-03-26T03:50:43.449Z,7.52
2023-03-26T03:51:43.962Z,7.44
2023-03-26T03:52:42.977Z,7.42
2023-03-26T03:53:43.129Z,7.45
2023-03-26T03:54:43.281Z,7.56
2023-03-26T03:55:44.941Z,7.52
2023-03-26T03:56:43.623Z,7.45
2023-03-26T03:57:44.442Z,7.44
2023-03-26T03:58:43.822Z,7.47
2023-03-26T03:59:47.969Z,7.49
2023-03-26T04:00:44.997Z,7.58
2023-03-26T04:01:44.375Z,7.56
2023-03-26T04:02:45.047Z,7.47
2023-03-26T04:03:44.860Z,7.50
2023-03-26T04:04:45.941Z,7.50
2023-03-26T04:05:45.190Z,7.53
2023-03-26T04:06:46.945Z,7.50
2023-03-26T04:07:45.612Z,7.44
2023-03-26T04:08:46.999Z,7.41
2023-03-26T04:09:46.035Z,7.40
2023-03-26T04:10:46.184Z,7.45
2023-03-26T04:11:46.993Z,7.41
2023-03-26T04:12:47.445Z,7.45
2023-03-26T04:13:47.445Z,7.38
2023-03-26T04:14:46.845Z,7.42
2023-03-26T04:15:47.069Z,7.40
2023-03-26T04:16:47.252Z,7.40
2023-03-26T04:17:47.470Z,7.49
2023-03-26T04:18:47.586Z,7.55
2023-03-26T04:19:47.754Z,7.59
2023-03-26T04:20:47.916Z,7.59
2023-03-26T04:21:48.059Z,7.58
2023-03-26T04:22:48.256Z,7.62
2023-03-26T04:23:48.429Z,7.60
2023-03-26T04:24:49.317Z,7.75
2023-03-26T04:25:48.816Z,7.69
2023-03-26T04:26:50.451Z,7.71
2023-03-26T04:27:49.196Z,7.67
2023-03-26T04:28:50.034Z,7.69
2023-03-26T04:29:49.514Z,7.78
2023-03-26T04:30:50.319Z,7.84
2023-03-26T04:31:50.510Z,7.79
2023-03-26T04:32:50.461Z,7.87
2023-03-26T04:33:50.133Z,7.79
2023-03-26T04:34:52.481Z,7.77
2023-03-26T04:35:51.461Z,7.75
2023-03-26T04:36:51.455Z,7.77
2023-03-26T04:37:50.720Z,7.79
2023-03-26T04:38:50.883Z,7.79
2023-03-26T04:39:52.026Z,7.77
2023-03-26T04:40:51.319Z,7.74
2023-03-26T04:41:51.518Z,7.77
2023-03-26T04:42:52.461Z,7.78
2023-03-26T04:43:52.009Z,7.72
2023-03-26T04:44:52.074Z,7.75
2023-03-26T04:45:52.507Z,7.66
2023-03-26T04:46:53.038Z,7.78
2023-03-26T04:47:53.532Z,7.67
2023-03-26T04:48:52.742Z,7.69
2023-03-26T04:49:53.496Z,7.78
2023-03-26T04:50:53.055Z,7.72
2023-03-26T04:51:53.214Z,7.69
2023-03-26T04:52:54.458Z,7.75
2023-03-26T04:53:53.603Z,7.60
2023-03-26T04:54:53.793Z,7.60
2023-03-26T04:55:54.716Z,7.66
2023-03-26T04:56:54.972Z,7.66
2023-03-26T04:57:54.393Z,7.67
2023-03-26T04:58:54.597Z,7.74
2023-03-26T04:59:55.467Z,7.71
2023-03-26T05:00:57.009Z,7.72
2023-03-26T05:01:55.164Z,7.72
2023-03-26T05:02:56.259Z,7.77
2023-03-26T05:03:55.569Z,7.77
2023-03-26T05:04:55.649Z,7.77
2023-03-26T05:05:55.999Z,7.69
2023-03-26T05:06:56.959Z,7.71
2023-03-26T05:07:57.463Z,7.77
2023-03-26T05:08:56.373Z,7.75
2023-03-26T05:09:56.634Z,7.75
2023-03-26T05:10:56.942Z,7.77
2023-03-26T05:11:56.883Z,7.79
2023-03-26T05:12:57.076Z,7.71
2023-03-26T05:13:58.021Z,7.71
2023-03-26T05:14:58.474Z,7.71
2023-03-26T05:15:57.651Z,7.81
2023-03-26T05:16:57.838Z,7.60
2023-03-26T05:17:58.031Z,7.72
2023-03-26T05:18:58.998Z,7.77
2023-03-26T05:19:58.271Z,7.72
2023-03-26T05:20:58.969Z,7.62
2023-03-26T05:21:58.598Z,7.72
2023-03-26T05:22:59.511Z,7.67
2023-03-26T05:23:58.866Z,7.77
2023-03-26T05:24:59.036Z,7.81
2023-03-26T05:25:59.176Z,7.69
2023-03-26T05:26:59.960Z,7.66
2023-03-26T05:28:01.468Z,7.77
2023-03-26T05:28:59.698Z,7.74
2023-03-26T05:29:59.856Z,7.71
2023-03-26T05:31:02.832Z,7.78
2023-03-26T05:32:00.963Z,7.59
2023-03-26T05:33:00.429Z,7.63
2023-03-26T05:34:00.629Z,7.74
2023-03-26T05:35:02.468Z,7.72
2023-03-26T05:36:01.571Z,7.75
2023-03-26T05:37:00.982Z,7.74
2023-03-26T05:38:01.120Z,7.69
2023-03-26T05:39:01.521Z,7.75
2023-03-26T05:40:02.972Z,7.74
2023-03-26T05:41:02.473Z,7.72
2023-03-26T05:42:01.875Z,7.75
2023-03-26T05:43:02.014Z,7.75
2023-03-26T05:44:02.143Z,7.66
2023-03-26T05:45:02.969Z,7.74
2023-03-26T05:46:02.538Z,7.62
2023-03-26T05:47:02.688Z,7.72
2023-03-26T05:48:02.914Z,7.74
2023-03-26T05:49:03.189Z,7.72
2023-03-26T05:50:05.835Z,7.74
2023-03-26T05:51:03.457Z,7.72
2023-03-26T05:52:04.477Z,7.60
2023-03-26T05:53:03.746Z,7.79
2023-03-26T05:54:03.891Z,7.69
2023-03-26T05:55:04.067Z,7.78
2023-03-26T05:56:04.230Z,7.72
2023-03-26T05:57:05.017Z,7.77
2023-03-26T05:58:05.533Z,7.78
2023-03-26T05:59:04.797Z,7.71
2023-03-26T06:00:04.961Z,7.74
2023-03-26T06:01:05.195Z,7.79
2023-03-26T06:02:05.968Z,7.74
2023-03-26T06:03:05.601Z,7.72
2023-03-26T06:04:06.530Z,7.74
2023-03-26T06:05:05.875Z,7.75
2023-03-26T06:06:07.052Z,7.75
2023-03-26T06:07:06.521Z,7.77
2023-03-26T06:08:06.322Z,7.63
2023-03-26T06:09:06.442Z,7.74
2023-03-26T06:10:07.604Z,7.75
2023-03-26T06:11:07.516Z,7.69
2023-03-26T06:12:07.006Z,7.71
2023-03-26T06:13:07.193Z,7.81
2023-03-26T06:14:08.978Z,7.72
2023-03-26T06:15:07.598Z,7.69
2023-03-26T06:16:08.513Z,7.74
2023-03-26T06:17:08.474Z,7.72
2023-03-26T06:18:09.068Z,7.78
2023-03-26T06:19:08.305Z,7.77
2023-03-26T06:20:09.500Z,7.85
2023-03-26T06:21:09.672Z,7.82
2023-03-26T06:22:08.823Z,7.79
2023-03-26T06:23:09.024Z,7.75
2023-03-26T06:24:09.197Z,7.77
2023-03-26T06:25:09.375Z,7.93
2023-03-26T06:26:10.474Z,7.84
2023-03-26T06:27:09.764Z,7.99
2023-03-26T06:28:10.470Z,7.96
2023-03-26T06:29:10.108Z,7.87
2023-03-26T06:30:10.279Z,7.89
2023-03-26T06:31:10.508Z,7.89
2023-03-26T06:32:19.785Z,7.93
2023-03-26T06:33:12.713Z,7.82
2023-03-26T06:34:10.958Z,7.87
2023-03-26T06:35:11.242Z,7.77
2023-03-26T06:36:12.419Z,7.79
2023-03-26T06:37:11.533Z,7.93
2023-03-26T06:38:12.978Z,7.78
2023-03-26T06:39:11.873Z,7.77
2023-03-26T06:40:14.764Z,7.75
2023-03-26T06:41:12.303Z,7.75
2023-03-26T06:42:13.488Z,7.71
2023-03-26T06:43:12.635Z,7.78
2023-03-26T06:44:13.520Z,7.69
2023-03-26T06:45:12.938Z,7.71
2023-03-26T06:46:13.148Z,7.77
2023-03-26T06:47:13.331Z,7.77
2023-03-26T06:48:13.486Z,7.82
2023-03-26T06:49:13.668Z,7.72
2023-03-26T06:50:13.815Z,7.59
2023-03-26T06:51:14.520Z,7.67
2023-03-26T06:52:14.140Z,7.62
2023-03-26T06:53:14.284Z,7.71
2023-03-26T06:54:14.476Z,7.67
2023-03-26T06:55:14.659Z,7.71
2023-03-26T06:56:14.915Z,7.71
2023-03-26T06:57:15.079Z,7.74
2023-03-26T06:58:15.239Z,7.77
2023-03-26T06:59:16.983Z,7.75
2023-03-26T07:00:15.601Z,7.77
2023-03-26T07:01:15.805Z,7.72
2023-03-26T07:02:15.913Z,7.78
2023-03-26T07:03:16.107Z,7.74
2023-03-26T07:04:16.364Z,7.74
2023-03-26T07:05:17.542Z,7.66
2023-03-26T07:06:17.532Z,7.72
2023-03-26T07:07:16.909Z,7.79
2023-03-26T07:08:17.087Z,7.69
2023-03-26T07:09:17.990Z,7.74
2023-03-26T07:10:18.060Z,7.66
2023-03-26T07:11:18.537Z,7.66
2023-03-26T07:12:17.807Z,7.75
2023-03-26T07:13:17.994Z,7.56
2023-03-26T07:14:18.200Z,7.67
2023-03-26T07:15:18.414Z,7.71
2023-03-26T07:16:18.593Z,7.67
2023-03-26T07:17:18.767Z,7.69
2023-03-26T07:18:18.964Z,7.75
2023-03-26T07:19:19.191Z,7.63
2023-03-26T07:20:19.349Z,7.71
2023-03-26T07:21:20.490Z,7.72
2023-03-26T07:22:19.736Z,7.74
2023-03-26T07:23:20.994Z,7.67
2023-03-26T07:24:21.039Z,7.74
2023-03-26T07:25:20.331Z,7.75
2023-03-26T07:26:21.033Z,7.79
2023-03-26T07:27:20.690Z,7.81
2023-03-26T07:28:20.919Z,7.77
2023-03-26T07:29:21.100Z,7.79
2023-03-26T07:30:21.989Z,7.78
2023-03-26T07:31:21.449Z,7.79
2023-03-26T07:32:22.546Z,7.82
2023-03-26T07:33:22.049Z,7.82
2023-03-26T07:34:21.940Z,7.84
2023-03-26T07:35:22.164Z,7.87
2023-03-26T07:36:23.202Z,7.89
2023-03-26T07:37:22.432Z,7.84
2023-03-26T07:38:22.599Z,7.97
2023-03-26T07:39:22.762Z,7.84
2023-03-26T07:40:23.536Z,7.92
2023-03-26T07:41:24.035Z,7.89
2023-03-26T07:42:23.271Z,7.89
2023-03-26T07:43:23.427Z,7.93
2023-03-26T07:44:23.591Z,7.81
2023-03-26T07:45:24.490Z,7.77
2023-03-26T07:46:24.492Z,7.87
2023-03-26T07:47:25.056Z,7.85
2023-03-26T07:48:25.513Z,7.79
2023-03-26T07:49:24.540Z,7.82
2023-03-26T07:50:24.677Z,7.92
2023-03-26T07:51:25.536Z,7.82
2023-03-26T07:52:25.867Z,7.75
2023-03-26T07:53:25.253Z,7.71
2023-03-26T07:54:25.421Z,7.78
2023-03-26T07:55:25.603Z,7.81
2023-03-26T07:56:25.868Z,7.81
2023-03-26T07:57:26.577Z,7.84
2023-03-26T07:58:26.091Z,7.77
2023-03-26T07:59:26.546Z,7.84
2023-03-26T08:00:27.994Z,7.78
2023-03-26T08:01:26.609Z,7.84
2023-03-26T08:02:26.801Z,7.82
2023-03-26T08:03:28.588Z,7.84
2023-03-26T08:04:28.627Z,7.84
2023-03-26T08:05:27.218Z,7.90
2023-03-26T08:06:27.995Z,7.79
2023-03-26T08:07:27.649Z,7.84
2023-03-26T08:08:27.799Z,7.89
2023-03-26T08:09:28.569Z,7.90
2023-03-26T08:10:28.221Z,7.87
2023-03-26T08:11:28.383Z,7.94
2023-03-26T08:12:28.553Z,7.94
2023-03-26T08:13:29.537Z,7.96
2023-03-26T08:14:29.548Z,7.94
2023-03-26T08:15:29.087Z,7.96
2023-03-26T08:16:29.265Z,8.02
2023-03-26T08:17:31.246Z,7.85
2023-03-26T08:18:31.058Z,7.84
2023-03-26T08:19:30.543Z,7.82
2023-03-26T08:20:29.928Z,7.87
2023-03-26T08:21:30.072Z,7.87
2023-03-26T08:22:30.236Z,7.89
2023-03-26T08:23:30.386Z,7.90
2023-03-26T08:24:30.566Z,8.00
2023-03-26T08:25:30.716Z,7.96
2023-03-26T08:26:31.508Z,8.02
2023-03-26T08:27:31.035Z,8.04
2023-03-26T08:28:32.499Z,8.03
2023-03-26T08:29:33.006Z,8.04
2023-03-26T08:30:31.625Z,7.97
2023-03-26T08:31:32.527Z,7.93
2023-03-26T08:32:32.557Z,7.89
2023-03-26T08:33:32.100Z,7.87
2023-03-26T08:34:33.049Z,7.85
2023-03-26T08:35:32.507Z,7.87
2023-03-26T08:36:32.586Z,7.85
2023-03-26T08:37:32.786Z,7.82
2023-03-26T08:38:32.938Z,7.79
2023-03-26T08:39:33.075Z,7.85
2023-03-26T08:40:34.509Z,7.84
2023-03-26T08:41:33.418Z,7.85
2023-03-26T08:42:33.579Z,7.90
2023-03-26T08:43:33.743Z,7.93
2023-03-26T08:44:34.509Z,7.82
2023-03-26T08:45:34.038Z,7.89
2023-03-26T08:46:34.289Z,7.92
2023-03-26T08:47:34.371Z,7.94
2023-03-26T08:48:34.534Z,8.00
2023-03-26T08:49:34.692Z,8.11
2023-03-26T08:50:35.715Z,8.02
2023-03-26T08:51:35.102Z,8.07
2023-03-26T08:52:36.013Z,7.97
2023-03-26T08:53:35.547Z,7.99
2023-03-26T08:54:35.743Z,8.02
2023-03-26T08:55:36.521Z,8.07
2023-03-26T08:56:36.094Z,8.00
2023-03-26T08:57:36.270Z,7.96
2023-03-26T08:58:36.522Z,7.92
2023-03-26T08:59:36.593Z,7.87
2023-03-26T09:00:36.775Z,7.82
2023-03-26T09:01:37.532Z,7.87
2023-03-26T09:02:38.165Z,7.99
2023-03-26T09:03:37.293Z,8.04
2023-03-26T09:04:37.506Z,8.07
2023-03-26T09:05:39.515Z,8.03
2023-03-26T09:06:38.513Z,8.07
2023-03-26T09:07:39.015Z,7.94
2023-03-26T09:08:38.272Z,7.87
2023-03-26T09:09:40.019Z,7.92
2023-03-26T09:10:38.585Z,8.03
2023-03-26T09:11:38.711Z,7.90
2023-03-26T09:12:39.518Z,7.92
2023-03-26T09:13:39.520Z,7.97
2023-03-26T09:14:39.194Z,8.00
2023-03-26T09:15:39.395Z,8.02
2023-03-26T09:16:39.589Z,8.08
2023-03-26T09:17:40.576Z,8.07
2023-03-26T09:18:39.864Z,8.03
2023-03-26T09:19:40.068Z,8.11
2023-03-26T09:20:41.052Z,8.03
2023-03-26T09:21:40.321Z,8.03
2023-03-26T09:22:40.473Z,8.04
2023-03-26T09:23:40.761Z,7.94
2023-03-26T09:24:41.809Z,7.92
2023-03-26T09:25:40.919Z,7.94
2023-03-26T09:26:41.070Z,8.04
2023-03-26T09:27:42.022Z,8.18
2023-03-26T09:28:42.026Z,8.07
2023-03-26T09:29:41.687Z,8.08
2023-03-26T09:30:41.880Z,8.10
2023-03-26T09:31:42.084Z,8.07
2023-03-26T09:32:43.099Z,8.12
2023-03-26T09:33:43.066Z,8.10
2023-03-26T09:34:42.729Z,8.08
2023-03-26T09:35:42.908Z,8.15
2023-03-26T09:36:42.991Z,8.07
2023-03-26T09:37:56.878Z,8.12
2023-03-26T09:38:44.337Z,8.08
2023-03-26T09:39:43.466Z,8.10
2023-03-26T09:40:43.618Z,8.10
2023-03-26T09:41:43.781Z,8.21
2023-03-26T09:42:43.901Z,8.15
2023-03-26T09:43:44.094Z,8.10
2023-03-26T09:44:44.251Z,8.11
2023-03-26T09:45:44.450Z,8.08
2023-03-26T09:46:46.696Z,8.21
2023-03-26T09:47:45.855Z,8.14
2023-03-26T09:48:45.590Z,8.08
2023-03-26T09:49:45.235Z,8.08
2023-03-26T09:50:45.405Z,7.93
2023-03-26T09:51:45.626Z,7.93
2023-03-26T09:52:45.828Z,8.04
2023-03-26T09:53:46.549Z,8.11
2023-03-26T09:54:46.185Z,8.02
2023-03-26T09:55:46.325Z,7.93
2023-03-26T09:56:46.499Z,8.07
2023-03-26T09:57:46.664Z,7.99
2023-03-26T09:58:46.841Z,8.03
2023-03-26T09:59:47.014Z,7.97
2023-03-26T10:00:47.233Z,7.92
2023-03-26T10:01:47.588Z,8.00
2023-03-26T10:02:47.873Z,8.00
2023-03-26T10:03:48.572Z,8.07
2023-03-26T10:04:48.626Z,8.11
2023-03-26T10:05:48.183Z,8.04
2023-03-26T10:06:48.587Z,8.04
2023-03-26T10:07:48.734Z,7.97
2023-03-26T10:08:49.745Z,7.99
2023-03-26T10:09:49.570Z,8.02
2023-03-26T10:10:49.118Z,8.03
2023-03-26T10:11:50.089Z,7.92
2023-03-26T10:12:49.488Z,7.87
2023-03-26T10:13:49.666Z,7.78
2023-03-26T10:14:49.833Z,7.81
2023-03-26T10:15:51.036Z,7.87
2023-03-26T10:16:50.231Z,7.74
2023-03-26T10:17:50.460Z,7.74
2023-03-26T10:18:50.546Z,7.72
2023-03-26T10:19:50.823Z,7.62
2023-03-26T10:20:52.522Z,7.62
2023-03-26T10:21:51.014Z,7.71
2023-03-26T10:22:51.210Z,7.56
2023-03-26T10:23:51.386Z,7.66
2023-03-26T10:24:53.035Z,7.59
2023-03-26T10:25:51.692Z,7.60
2023-03-26T10:27:10.295Z,7.42
2023-03-26T10:27:53.026Z,7.47
2023-03-26T10:28:53.075Z,7.63
2023-03-26T10:29:52.340Z,7.45
2023-03-26T10:30:52.791Z,7.41
2023-03-26T10:31:52.685Z,7.40
2023-03-26T10:32:52.861Z,7.45
2023-03-26T10:34:28.783Z,7.45
2023-03-26T10:34:56.030Z,7.40
2023-03-26T10:35:53.404Z,7.42
2023-03-26T10:36:53.627Z,7.44
2023-03-26T10:37:55.045Z,7.45
2023-03-26T10:38:53.953Z,7.52
2023-03-26T10:39:54.980Z,7.56
2023-03-26T10:40:55.474Z,7.59
2023-03-26T10:41:55.428Z,7.56
2023-03-26T10:42:54.571Z,7.62
2023-03-26T10:44:07.429Z,7.66
2023-03-26T10:44:56.942Z,7.72
2023-03-26T10:45:55.201Z,7.72
2023-03-26T10:46:56.036Z,7.63
2023-03-26T10:47:55.589Z,7.63
2023-03-26T10:48:55.763Z,7.52
2023-03-26T10:49:55.932Z,7.47
2023-03-26T10:50:57.164Z,7.22
2023-03-26T10:51:56.304Z,7.26
2023-03-26T10:52:56.507Z,7.22
2023-03-26T10:53:56.664Z,7.16
2023-03-26T10:54:56.851Z,6.97
2023-03-26T10:55:57.003Z,6.91
2023-03-26T10:56:57.211Z,6.89
2023-03-26T10:57:58.073Z,6.72
2023-03-26T10:58:57.495Z,6.71
2023-03-26T10:59:57.672Z,6.80
2023-03-26T11:00:58.531Z,6.71
2023-03-26T11:01:58.053Z,6.63
2023-03-26T11:02:58.283Z,6.62
2023-03-26T11:03:58.456Z,6.62
2023-03-26T11:04:59.592Z,6.62
2023-03-26T11:05:59.572Z,6.65
2023-03-26T11:06:58.960Z,6.63
2023-03-26T11:08:00.537Z,6.71
2023-03-26T11:08:59.260Z,6.58
2023-03-26T11:09:59.425Z,6.61
2023-03-26T11:10:59.594Z,6.63
2023-03-26T11:11:59.759Z,6.76
2023-03-26T11:12:59.892Z,6.76
2023-03-26T11:14:00.096Z,6.83
2023-03-26T11:15:01.088Z,6.63
2023-03-26T11:16:00.548Z,6.68
2023-03-26T11:17:01.584Z,6.68
2023-03-26T11:18:00.893Z,6.80
2023-03-26T11:19:01.445Z,6.69
2023-03-26T11:20:01.182Z,6.63
2023-03-26T11:21:19.899Z,6.80
2023-03-26T11:22:02.540Z,6.71
2023-03-26T11:23:03.548Z,6.84
2023-03-26T11:24:04.755Z,6.83
2023-03-26T11:25:05.135Z,6.77
2023-03-26T11:26:03.091Z,6.80
2023-03-26T11:27:15.354Z,6.91
2023-03-26T11:28:04.623Z,6.87
2023-03-26T11:29:04.020Z,6.89
2023-03-26T11:30:04.100Z,6.71
2023-03-26T11:31:03.235Z,6.65
2023-03-26T11:32:03.919Z,6.66
2023-03-26T11:33:03.612Z,6.66
2023-03-26T11:34:03.788Z,6.65
2023-03-26T11:35:03.989Z,6.69
2023-03-26T11:36:04.134Z,6.63
2023-03-26T11:37:04.355Z,6.79
2023-03-26T11:38:05.053Z,6.73
2023-03-26T11:39:05.604Z,6.80
2023-03-26T11:40:05.614Z,6.80
2023-03-26T11:41:05.138Z,6.73
2023-03-26T11:42:05.226Z,6.81
2023-03-26T11:43:05.364Z,6.62
2023-03-26T11:44:05.545Z,6.63
2023-03-26T11:45:05.711Z,6.63
2023-03-26T11:46:05.951Z,6.61
2023-03-26T11:47:06.546Z,6.66
2023-03-26T11:48:06.202Z,6.71
2023-03-26T11:49:06.387Z,6.62
2023-03-26T11:50:06.562Z,6.63
2023-03-26T11:51:07.109Z,6.62
2023-03-26T11:52:06.887Z,6.71
2023-03-26T11:53:08.056Z,6.59
2023-03-26T11:54:09.052Z,6.69
2023-03-26T11:55:07.422Z,6.63
2023-03-26T11:56:09.072Z,6.76
2023-03-26T11:57:07.863Z,6.65
2023-03-26T11:58:08.093Z,6.71
2023-03-26T11:59:08.260Z,6.71
2023-03-26T12:00:08.440Z,6.77
2023-03-26T12:01:08.657Z,6.71
2023-03-26T12:02:08.890Z,6.65
2023-03-26T12:03:09.133Z,6.66
2023-03-26T12:04:10.182Z,6.62
2023-03-26T12:05:09.373Z,6.56
2023-03-26T12:06:09.555Z,6.62
2023-03-26T12:07:10.732Z,6.58
2023-03-26T12:08:09.913Z,6.65
2023-03-26T12:09:10.097Z,6.68
2023-03-26T12:10:18.728Z,6.66
2023-03-26T12:11:11.415Z,6.65
2023-03-26T12:12:10.534Z,6.71
2023-03-26T12:13:11.599Z,6.76
2023-03-26T12:14:11.549Z,6.80
2023-03-26T12:15:11.064Z,6.68
2023-03-26T12:16:13.092Z,6.77
2023-03-26T12:17:11.364Z,6.80
2023-03-26T12:18:11.532Z,6.83
2023-03-26T12:19:11.720Z,6.89
2023-03-26T12:20:12.618Z,6.80
2023-03-26T12:21:12.923Z,6.79
2023-03-26T12:22:14.059Z,6.77
2023-03-26T12:23:13.561Z,6.91
2023-03-26T12:24:12.445Z,6.98
2023-03-26T12:25:12.632Z,6.97
2023-03-26T12:26:12.804Z,7.01
2023-03-26T12:27:12.993Z,7.05
2023-03-26T12:28:14.141Z,6.86
2023-03-26T12:29:13.662Z,6.91
2023-03-26T12:30:14.097Z,6.91
2023-03-26T12:31:14.613Z,6.87
2023-03-26T12:32:13.788Z,6.94
2023-03-26T12:33:14.604Z,6.94
2023-03-26T12:34:14.145Z,6.81
2023-03-26T12:35:15.099Z,6.69
2023-03-26T12:36:14.610Z,6.63
2023-03-26T12:37:15.116Z,6.69
2023-03-26T12:38:14.880Z,6.68
2023-03-26T12:40:06.001Z,6.62
2023-03-26T12:40:20.638Z,6.77
2023-03-26T12:42:36.571Z,6.66
2023-03-26T12:42:52.657Z,6.63
2023-03-26T12:44:48.415Z,6.73
2023-03-26T12:44:55.849Z,6.77
2023-03-26T12:45:18.065Z,6.84
2023-03-26T12:47:57.023Z,6.86
2023-03-26T12:47:58.375Z,6.79
2023-03-26T12:48:17.577Z,6.94
2023-03-26T12:49:17.548Z,6.91
2023-03-26T12:50:17.609Z,6.97
2023-03-26T12:51:18.200Z,6.98
2023-03-26T12:52:17.366Z,6.95
2023-03-26T12:53:17.588Z,6.86
2023-03-26T12:54:17.752Z,6.90
2023-03-26T12:55:18.611Z,6.95
2023-03-26T12:56:19.098Z,6.95
2023-03-26T12:57:18.537Z,6.76
2023-03-26T12:58:18.574Z,6.95
2023-03-26T12:59:18.789Z,6.90
2023-03-26T13:00:18.991Z,7.15
2023-03-26T13:01:19.218Z,6.99
2023-03-26T13:02:19.343Z,7.01
2023-03-26T13:03:19.599Z,6.94
2023-03-26T13:04:19.714Z,7.08
2023-03-26T13:05:19.917Z,7.01
2023-03-26T13:06:20.100Z,6.99
2023-03-26T13:07:20.260Z,6.91
2023-03-26T13:08:20.428Z,7.07
2023-03-26T13:09:20.602Z,6.89
2023-03-26T13:10:20.806Z,6.99
2023-03-26T13:11:20.982Z,6.80
2023-03-26T13:12:21.145Z,6.73
2023-03-26T13:13:21.348Z,6.72
2023-03-26T13:14:22.136Z,6.76
2023-03-26T13:15:22.124Z,6.76
2023-03-26T13:16:21.959Z,6.76
2023-03-26T13:17:22.082Z,6.76
2023-03-26T13:18:23.074Z,6.86
2023-03-26T13:19:23.438Z,6.81
2023-03-26T13:20:23.640Z,6.86